Malta, Idaho
Current Conditions -  °F | °C
As of 9:53 AM on Saturday 22 Nov 2014 (Local Time) from KBYI Reporting Station
Light Rain Light Rain  
Wind Chill:   Ceiling: 4300
Heat Index:   Visibility: 10mi
Dew Point:   Wind: 18mph
Humidity: 76%   Direction: 230°SW
Pressure: 29.69"   Gusts: 35mph
Location:  42.31°N, 113.37°W
Report Text: KBYI 221653Z AUTO 23016G30KT 10SM -RA FEW028 OVC043 07/03 A2969 RMK AO2 PK WND 20035/1611 SLP052 P0001 T00670028
Loading
Personal Weather Stations






























Interactive Weather Map New forecast layout! Learn more

10-Day Weather Forecast

Advertisements
Track Severe Weather on mobile